Walker, Michigan
Current Conditions -  °F | °C
As of 5:53 PM on Monday 22 Dec 2014 (Local Time) from KGRR Reporting Station
Light Rain Light Rain  
Wind Chill: 26°   Ceiling: 4600
Heat Index: 35°   Visibility: 4mi
Dew Point: 31°   Wind: 14mph
Humidity: 85%   Direction: 80°E
Pressure: 29.84"   Gusts: NA
Location:  43.0133°N, 85.6986°W
Report Text: KGRR 222253Z 08012KT 4SM -RA BR FEW036 OVC046 02/M01 A2984 RMK AO2 SLP114 P0003 T00171006
Loading
Personal Weather Stations






























Interactive Weather Map New forecast layout! Learn more

10-Day Weather Forecast

Advertisements
Track Severe Weather on mobile